createdAt,value
2023-03-15T00:01:27.470Z,93.11
2023-03-15T00:03:55.862Z,92.98
2023-03-15T00:06:24.366Z,92.95
2023-03-15T00:08:52.846Z,92.66
2023-03-15T00:11:21.524Z,92.96
2023-03-15T00:16:37.261Z,93.60
2023-03-15T00:19:10.673Z,94.08
2023-03-15T00:21:40.750Z,94.80
2023-03-15T00:24:10.663Z,95.28
2023-03-15T00:26:39.255Z,95.87
2023-03-15T00:29:10.659Z,96.15
2023-03-15T00:31:39.661Z,96.69
2023-03-15T00:34:08.032Z,96.84
2023-03-15T00:36:36.551Z,97.27
2023-03-15T00:39:05.955Z,97.34
2023-03-15T00:41:34.777Z,97.28
2023-03-15T00:44:06.470Z,97.17
2023-03-15T00:46:34.986Z,97.33
2023-03-15T00:49:03.879Z,97.38
2023-03-15T00:51:34.649Z,97.58
2023-03-15T00:54:03.527Z,97.65
2023-03-15T00:56:32.047Z,97.78
2023-03-15T00:59:00.522Z,98.12
2023-03-15T01:01:29.563Z,98.54
2023-03-15T01:03:58.459Z,99.18
2023-03-15T01:06:27.377Z,99.82
2023-03-15T01:08:56.885Z,100.00
2023-03-15T01:11:26.617Z,100.00
2023-03-15T01:13:55.847Z,100.00
2023-03-15T01:16:27.849Z,100.00
2023-03-15T01:18:56.428Z,100.00
2023-03-15T01:21:24.810Z,100.00
2023-03-15T01:23:53.529Z,100.00
2023-03-15T01:26:23.135Z,100.00
2023-03-15T01:28:51.843Z,100.00
2023-03-15T01:31:22.029Z,100.00
2023-03-15T01:33:50.417Z,100.00
2023-03-15T01:36:18.751Z,100.00
2023-03-15T01:38:47.299Z,100.00
2023-03-15T01:41:16.425Z,100.00
2023-03-15T01:43:48.581Z,100.00
2023-03-15T01:46:18.701Z,100.00
2023-03-15T01:48:49.079Z,100.00
2023-03-15T01:51:34.454Z,100.00
2023-03-15T01:54:04.847Z,100.00
2023-03-15T01:56:36.032Z,100.00
2023-03-15T01:59:05.077Z,100.00
2023-03-15T02:01:33.677Z,100.00
2023-03-15T02:04:07.724Z,100.00
2023-03-15T02:06:37.501Z,100.00
2023-03-15T02:09:07.138Z,100.00
2023-03-15T02:11:37.287Z,100.00
2023-03-15T02:14:05.904Z,100.00
2023-03-15T02:16:35.796Z,100.00
2023-03-15T02:19:07.302Z,100.00
2023-03-15T02:21:48.356Z,100.00
2023-03-15T02:24:22.708Z,100.00
2023-03-15T02:26:53.306Z,100.00
2023-03-15T02:29:22.246Z,100.00
2023-03-15T02:31:51.940Z,100.00
2023-03-15T02:34:20.270Z,100.00
2023-03-15T02:36:49.619Z,100.00
2023-03-15T02:39:21.056Z,100.00
2023-03-15T02:41:58.467Z,100.00
2023-03-15T02:44:38.503Z,100.00
2023-03-15T02:47:17.306Z,100.00
2023-03-15T02:49:46.798Z,100.00
2023-03-15T02:52:14.992Z,100.00
2023-03-15T02:54:43.809Z,100.00
2023-03-15T02:57:13.119Z,100.00
2023-03-15T02:59:43.066Z,100.00
2023-03-15T03:02:13.546Z,100.00
2023-03-15T03:04:44.301Z,100.00
2023-03-15T03:07:12.616Z,100.00
2023-03-15T03:09:48.792Z,100.00
2023-03-15T03:12:18.377Z,100.00
2023-03-15T03:14:46.676Z,100.00
2023-03-15T03:17:18.013Z,100.00
2023-03-15T03:19:46.721Z,100.00
2023-03-15T03:22:17.440Z,100.00
2023-03-15T03:24:46.349Z,100.00
2023-03-15T03:27:15.370Z,100.00
2023-03-15T03:29:45.348Z,100.00
2023-03-15T03:32:13.708Z,100.00
2023-03-15T03:34:42.240Z,100.00
2023-03-15T03:37:11.194Z,100.00
2023-03-15T03:40:08.352Z,100.00
2023-03-15T03:42:37.125Z,100.00
2023-03-15T03:45:06.165Z,100.00
2023-03-15T03:47:38.521Z,100.00
2023-03-15T03:50:07.432Z,100.00
2023-03-15T03:52:37.744Z,100.00
2023-03-15T03:55:09.055Z,100.00
2023-03-15T03:57:37.359Z,100.00
2023-03-15T04:00:07.486Z,100.00
2023-03-15T04:02:43.142Z,100.00
2023-03-15T04:05:14.255Z,100.00
2023-03-15T04:07:43.687Z,100.00
2023-03-15T04:10:15.993Z,100.00
2023-03-15T04:12:50.059Z,100.00
2023-03-15T04:15:18.666Z,100.00
2023-03-15T04:17:47.355Z,100.00
2023-03-15T04:20:17.746Z,100.00
2023-03-15T04:22:49.912Z,100.00
2023-03-15T04:25:32.877Z,100.00
2023-03-15T04:28:33.933Z,100.00
2023-03-15T04:31:15.557Z,100.00
2023-03-15T04:34:06.948Z,100.00
2023-03-15T04:36:56.421Z,100.00
2023-03-15T04:39:42.964Z,100.00
2023-03-15T04:42:29.855Z,100.00
2023-03-15T04:45:32.074Z,100.00
2023-03-15T04:48:21.942Z,96.84
2023-03-15T04:51:10.428Z,89.38
2023-03-15T04:53:54.745Z,86.81
2023-03-15T04:56:38.425Z,81.06
2023-03-15T04:59:22.408Z,79.22
2023-03-15T05:02:23.375Z,75.93
2023-03-15T05:05:13.577Z,72.64
2023-03-15T05:08:01.394Z,70.66
2023-03-15T05:10:38.083Z,70.08
2023-03-15T05:13:23.018Z,68.51
2023-03-15T05:16:14.326Z,66.00
2023-03-15T05:19:03.974Z,64.04
2023-03-15T05:21:34.772Z,63.77
2023-03-15T05:24:14.899Z,63.50
2023-03-15T05:27:01.716Z,62.46
2023-03-15T05:29:46.060Z,61.35
2023-03-15T05:32:38.011Z,60.30
2023-03-15T05:35:19.809Z,60.19
2023-03-15T05:38:08.626Z,59.57
2023-03-15T05:40:57.728Z,58.07
2023-03-15T05:43:38.163Z,56.84
2023-03-15T05:46:26.984Z,55.77
2023-03-15T05:49:00.810Z,55.08
2023-03-15T05:51:46.331Z,53.76
2023-03-15T05:54:39.317Z,53.33
2023-03-15T05:57:34.225Z,53.56
2023-03-15T06:00:28.556Z,52.74
2023-03-15T06:02:58.360Z,52.36
2023-03-15T06:05:42.835Z,51.39
2023-03-15T06:08:14.773Z,50.43
2023-03-15T06:10:47.454Z,50.26
2023-03-15T06:13:18.245Z,50.30
2023-03-15T06:15:47.420Z,49.95
2023-03-15T06:18:17.863Z,49.56
2023-03-15T06:20:47.935Z,49.22
2023-03-15T06:23:16.559Z,48.28
2023-03-15T06:25:48.137Z,47.15
2023-03-15T06:28:16.949Z,46.59
2023-03-15T06:30:51.016Z,44.94
2023-03-15T06:33:21.671Z,44.59
2023-03-15T06:35:50.218Z,44.35
2023-03-15T06:38:18.670Z,44.31
2023-03-15T06:40:47.288Z,44.14
2023-03-15T06:43:21.384Z,43.61
2023-03-15T06:45:49.964Z,42.83
2023-03-15T06:48:19.033Z,42.92
2023-03-15T06:50:48.215Z,42.92
2023-03-15T06:53:18.032Z,43.02
2023-03-15T06:55:47.418Z,42.86
2023-03-15T06:58:16.101Z,43.08
2023-03-15T07:00:45.169Z,43.34
2023-03-15T07:03:14.615Z,42.85
2023-03-15T07:05:43.664Z,42.70
2023-03-15T07:08:12.616Z,42.37
2023-03-15T07:10:42.272Z,42.00
2023-03-15T07:13:11.223Z,41.92
2023-03-15T07:15:40.105Z,41.56
2023-03-15T07:18:08.764Z,41.08
2023-03-15T07:20:37.778Z,40.79
2023-03-15T07:23:07.040Z,40.03
2023-03-15T07:25:48.192Z,40.03
2023-03-15T07:28:21.156Z,39.40
2023-03-15T07:30:59.177Z,38.90
2023-03-15T07:33:28.640Z,38.78
2023-03-15T07:35:57.102Z,38.56
2023-03-15T07:38:26.803Z,39.00
2023-03-15T07:40:55.368Z,38.65
2023-03-15T07:43:25.089Z,38.05
2023-03-15T07:46:02.088Z,38.31
2023-03-15T07:48:31.759Z,38.22
2023-03-15T07:51:00.167Z,37.91
2023-03-15T07:53:28.634Z,37.67
2023-03-15T07:55:58.048Z,37.33
2023-03-15T07:58:26.212Z,37.60
2023-03-15T08:00:56.435Z,37.79
2023-03-15T08:03:27.103Z,37.50
2023-03-15T08:05:57.179Z,37.11
2023-03-15T08:08:26.554Z,37.12
2023-03-15T08:10:56.386Z,36.97
2023-03-15T08:13:26.596Z,37.20
2023-03-15T08:15:55.000Z,37.60
2023-03-15T08:18:29.583Z,37.73
2023-03-15T08:20:59.365Z,37.25
2023-03-15T08:23:28.252Z,37.46
2023-03-15T08:25:56.727Z,37.80
2023-03-15T08:28:26.055Z,39.00
2023-03-15T08:30:54.349Z,40.03
2023-03-15T08:33:24.287Z,39.93
2023-03-15T08:35:54.434Z,39.55
2023-03-15T08:38:23.182Z,38.73
2023-03-15T08:40:55.567Z,38.06
2023-03-15T08:43:23.890Z,38.53
2023-03-15T08:46:00.708Z,39.12
2023-03-15T08:48:31.760Z,39.37
2023-03-15T08:51:04.265Z,39.20
2023-03-15T08:53:34.161Z,39.43
2023-03-15T08:56:02.295Z,39.18
2023-03-15T08:58:30.703Z,40.11
2023-03-15T09:00:58.930Z,40.52
2023-03-15T09:03:27.955Z,40.54
2023-03-15T09:05:59.441Z,39.81
2023-03-15T09:08:27.762Z,38.97
2023-03-15T09:10:57.095Z,38.96
2023-03-15T09:13:25.876Z,39.42
2023-03-15T09:15:59.993Z,39.56
2023-03-15T09:18:28.711Z,39.25
2023-03-15T09:20:57.832Z,38.93
2023-03-15T09:23:26.840Z,38.18
2023-03-15T09:25:55.463Z,37.77
2023-03-15T09:28:25.615Z,37.18
2023-03-15T09:30:55.077Z,37.10
2023-03-15T09:33:23.356Z,37.32
2023-03-15T09:35:53.526Z,38.03
2023-03-15T09:38:24.241Z,38.75
2023-03-15T09:40:55.868Z,38.93
2023-03-15T09:43:35.984Z,39.32
2023-03-15T09:46:13.333Z,40.42
2023-03-15T09:48:50.063Z,41.14
2023-03-15T09:51:41.748Z,41.32
2023-03-15T09:54:13.930Z,41.24
2023-03-15T09:56:42.356Z,41.26
2023-03-15T09:59:10.728Z,41.69
2023-03-15T10:01:40.457Z,42.05
2023-03-15T10:04:14.710Z,41.94
2023-03-15T10:06:46.421Z,41.58
2023-03-15T10:09:16.340Z,41.86
2023-03-15T10:11:55.821Z,42.28
2023-03-15T10:14:28.998Z,42.35
2023-03-15T10:16:57.192Z,42.07
2023-03-15T10:19:32.387Z,42.07
2023-03-15T10:22:05.067Z,41.71
2023-03-15T10:24:39.607Z,41.29
2023-03-15T10:27:21.688Z,41.68
2023-03-15T10:29:50.775Z,41.89
2023-03-15T10:32:19.512Z,42.17
2023-03-15T10:34:52.431Z,42.70
2023-03-15T10:37:23.951Z,43.27
2023-03-15T10:39:54.354Z,43.66
2023-03-15T10:42:25.726Z,43.60
2023-03-15T10:44:54.202Z,43.58
2023-03-15T10:47:24.511Z,44.20
2023-03-15T10:49:57.073Z,45.02
2023-03-15T10:52:28.596Z,45.75
2023-03-15T10:55:04.375Z,46.35
2023-03-15T10:57:34.956Z,46.39
2023-03-15T11:00:10.015Z,46.61
2023-03-15T11:02:38.585Z,47.28
2023-03-15T11:05:12.487Z,48.13
2023-03-15T11:07:44.729Z,48.68
2023-03-15T11:10:18.007Z,49.12
2023-03-15T11:12:46.450Z,48.81
2023-03-15T11:15:16.876Z,48.51
2023-03-15T11:17:48.198Z,48.40
2023-03-15T11:20:19.399Z,48.50
2023-03-15T11:22:47.731Z,48.39
2023-03-15T11:25:16.356Z,48.65
2023-03-15T11:27:44.690Z,49.01
2023-03-15T11:30:16.108Z,49.25
2023-03-15T11:32:45.332Z,49.17
2023-03-15T11:35:25.235Z,49.35
2023-03-15T11:38:03.214Z,49.44
2023-03-15T11:40:35.181Z,49.69
2023-03-15T11:43:04.903Z,49.68
2023-03-15T11:45:35.078Z,50.21
2023-03-15T11:48:28.229Z,51.01
2023-03-15T11:50:56.515Z,51.47
2023-03-15T11:53:25.928Z,51.64
2023-03-15T11:55:55.156Z,51.52
2023-03-15T11:58:45.197Z,51.34
2023-03-15T12:01:13.555Z,51.13
2023-03-15T12:03:44.872Z,51.17
2023-03-15T12:06:19.131Z,51.77
2023-03-15T12:08:54.064Z,51.96
2023-03-15T12:11:22.824Z,52.03
2023-03-15T12:13:57.377Z,52.04
2023-03-15T12:16:29.748Z,51.69
2023-03-15T12:18:58.167Z,51.84
2023-03-15T12:21:32.845Z,51.70
2023-03-15T12:24:04.148Z,51.61
2023-03-15T12:26:44.437Z,51.31
2023-03-15T12:29:22.989Z,51.02
2023-03-15T12:32:04.212Z,50.66
2023-03-15T12:34:39.837Z,50.63
2023-03-15T12:37:09.270Z,50.79
2023-03-15T12:39:39.326Z,50.77
2023-03-15T12:42:11.989Z,50.67
2023-03-15T12:44:42.167Z,50.52
2023-03-15T12:47:10.863Z,50.98
2023-03-15T12:49:43.585Z,51.14
2023-03-15T12:52:11.780Z,50.95
2023-03-15T12:54:44.561Z,51.11
2023-03-15T12:57:23.024Z,51.35
2023-03-15T12:59:53.935Z,51.50
2023-03-15T13:02:42.745Z,51.71
2023-03-15T13:05:23.224Z,51.89
2023-03-15T13:07:52.247Z,52.14
2023-03-15T13:10:23.997Z,52.59
2023-03-15T13:12:54.894Z,53.03
2023-03-15T13:15:33.201Z,53.45
2023-03-15T13:18:18.407Z,53.85
2023-03-15T13:20:50.229Z,54.26
2023-03-15T13:23:28.078Z,54.57
2023-03-15T13:26:08.607Z,54.69
2023-03-15T13:28:49.604Z,54.99
2023-03-15T13:31:25.068Z,55.10
2023-03-15T13:34:00.394Z,55.21
2023-03-15T13:36:41.117Z,55.41
2023-03-15T13:39:19.735Z,55.59
2023-03-15T13:41:48.156Z,55.99
2023-03-15T13:44:19.120Z,56.28
2023-03-15T13:46:52.162Z,56.62
2023-03-15T13:49:20.744Z,56.83
2023-03-15T13:51:49.301Z,57.04
2023-03-15T13:54:27.392Z,57.42
2023-03-15T13:56:57.290Z,57.95
2023-03-15T13:59:54.820Z,58.23
2023-03-15T14:02:26.606Z,58.46
2023-03-15T14:04:57.523Z,58.96
2023-03-15T14:07:30.190Z,59.25
2023-03-15T14:10:08.945Z,59.44
2023-03-15T14:12:37.684Z,59.78
2023-03-15T14:15:13.889Z,60.20
2023-03-15T14:18:02.978Z,60.56
2023-03-15T14:20:44.732Z,61.05
2023-03-15T14:23:14.684Z,61.41
2023-03-15T14:25:44.948Z,61.91
2023-03-15T14:28:15.377Z,62.36
2023-03-15T14:30:44.005Z,62.72
2023-03-15T14:33:22.990Z,63.20
2023-03-15T14:35:53.192Z,63.42
2023-03-15T14:38:22.596Z,63.63
2023-03-15T14:40:51.896Z,63.84
2023-03-15T14:43:20.090Z,64.24
2023-03-15T14:45:48.711Z,64.51
2023-03-15T14:48:19.776Z,64.85
2023-03-15T14:50:48.104Z,65.47
2023-03-15T14:53:16.979Z,66.30
2023-03-15T14:55:48.937Z,67.22
2023-03-15T14:58:18.586Z,67.62
2023-03-15T15:00:50.047Z,67.93
2023-03-15T15:03:22.416Z,68.44
2023-03-15T15:05:50.563Z,69.31
2023-03-15T15:08:19.453Z,68.78
2023-03-15T15:10:48.068Z,67.75
2023-03-15T15:13:18.222Z,67.89
2023-03-15T15:15:54.999Z,67.58
2023-03-15T15:18:25.344Z,67.60
2023-03-15T15:20:56.343Z,67.86
2023-03-15T15:23:28.841Z,67.90
2023-03-15T15:25:58.263Z,68.10
2023-03-15T15:28:35.132Z,68.99
2023-03-15T15:31:05.936Z,69.47
2023-03-15T15:33:35.264Z,69.88
2023-03-15T15:36:07.129Z,70.05
2023-03-15T15:38:39.150Z,70.31
2023-03-15T15:41:11.988Z,70.72
2023-03-15T15:43:41.448Z,71.90
2023-03-15T15:46:10.436Z,72.65
2023-03-15T15:48:42.704Z,73.86
2023-03-15T15:51:21.472Z,74.16
2023-03-15T15:53:50.189Z,75.03
2023-03-15T15:56:18.583Z,75.73
2023-03-15T15:58:47.275Z,76.38
2023-03-15T16:01:16.394Z,76.38
2023-03-15T16:03:44.738Z,76.68
2023-03-15T16:06:15.167Z,76.76
2023-03-15T16:08:43.594Z,77.21
2023-03-15T16:11:15.686Z,77.39
2023-03-15T16:13:45.343Z,77.32
2023-03-15T16:16:14.750Z,77.40
2023-03-15T16:18:44.518Z,77.97
2023-03-15T16:21:17.583Z,78.24
2023-03-15T16:23:45.899Z,78.38
2023-03-15T16:26:14.781Z,78.75
2023-03-15T16:28:43.748Z,79.68
2023-03-15T16:31:12.631Z,79.73
2023-03-15T16:33:54.286Z,80.61
2023-03-15T16:36:23.710Z,81.03
2023-03-15T16:38:52.241Z,80.82
2023-03-15T16:41:20.566Z,80.68
2023-03-15T16:43:49.607Z,80.37
2023-03-15T16:46:17.944Z,80.59
2023-03-15T16:48:47.757Z,81.38
2023-03-15T16:51:16.323Z,81.82
2023-03-15T16:53:46.107Z,80.90
2023-03-15T16:56:14.608Z,81.72
2023-03-15T16:58:46.694Z,82.90
2023-03-15T17:01:15.225Z,84.22
2023-03-15T17:03:43.527Z,84.87
2023-03-15T17:06:23.308Z,85.47
2023-03-15T17:08:52.884Z,85.92
2023-03-15T17:11:21.025Z,86.55
2023-03-15T17:13:50.320Z,87.72
2023-03-15T17:16:19.397Z,88.33
2023-03-15T17:18:48.943Z,89.09
2023-03-15T17:21:20.112Z,89.74
2023-03-15T17:23:49.233Z,91.47
2023-03-15T17:26:22.677Z,94.63
2023-03-15T17:28:51.377Z,98.75
2023-03-15T17:31:25.014Z,100.00
2023-03-15T17:33:56.424Z,100.00
2023-03-15T17:36:25.286Z,100.00
2023-03-15T17:38:55.047Z,100.00
2023-03-15T17:41:25.157Z,100.00
2023-03-15T17:43:53.300Z,100.00
2023-03-15T17:46:23.058Z,100.00
2023-03-15T17:48:51.790Z,100.00
2023-03-15T17:51:23.576Z,100.00
2023-03-15T17:53:52.406Z,100.00
2023-03-15T17:56:22.880Z,100.00
2023-03-15T17:58:52.748Z,100.00
2023-03-15T18:01:24.553Z,100.00
2023-03-15T18:03:54.901Z,100.00
2023-03-15T18:06:24.458Z,100.00
2023-03-15T18:08:54.967Z,100.00
2023-03-15T18:11:24.119Z,100.00
2023-03-15T18:13:52.354Z,100.00
2023-03-15T18:16:25.995Z,100.00
2023-03-15T18:18:56.046Z,100.00
2023-03-15T18:21:26.395Z,100.00
2023-03-15T18:23:54.988Z,100.00
2023-03-15T18:26:24.087Z,100.00
2023-03-15T18:28:52.409Z,100.00
2023-03-15T18:31:22.856Z,100.00
2023-03-15T18:33:51.387Z,100.00
2023-03-15T18:36:19.894Z,100.00
2023-03-15T18:38:48.620Z,100.00
2023-03-15T18:41:19.069Z,100.00
2023-03-15T18:43:52.305Z,100.00
2023-03-15T18:46:21.376Z,100.00
2023-03-15T18:48:54.620Z,100.00
2023-03-15T18:51:25.948Z,100.00
2023-03-15T18:53:54.449Z,100.00
2023-03-15T18:56:24.037Z,100.00
2023-03-15T18:58:52.428Z,100.00
2023-03-15T19:01:24.842Z,100.00
2023-03-15T19:03:53.636Z,100.00
2023-03-15T19:06:21.794Z,100.00
2023-03-15T19:08:54.464Z,100.00
2023-03-15T19:11:24.173Z,100.00
2023-03-15T19:13:55.459Z,100.00
2023-03-15T19:16:24.251Z,100.00
2023-03-15T19:18:52.600Z,100.00
2023-03-15T19:21:27.776Z,100.00
2023-03-15T19:23:58.074Z,100.00
2023-03-15T19:26:26.537Z,100.00
2023-03-15T19:28:58.793Z,100.00
2023-03-15T19:31:27.191Z,100.00
2023-03-15T19:33:59.148Z,100.00
2023-03-15T19:36:27.718Z,100.00
2023-03-15T19:38:55.896Z,100.00
2023-03-15T19:41:27.150Z,100.00
2023-03-15T19:43:56.032Z,100.00
2023-03-15T19:46:29.996Z,100.00
2023-03-15T19:48:59.258Z,100.00
2023-03-15T19:51:28.193Z,100.00
2023-03-15T19:53:57.031Z,100.00
2023-03-15T19:56:25.677Z,100.00
2023-03-15T19:58:57.272Z,100.00
2023-03-15T20:01:25.536Z,100.00
2023-03-15T20:03:53.823Z,100.00
2023-03-15T20:06:22.247Z,100.00
2023-03-15T20:08:50.500Z,100.00
2023-03-15T20:11:25.336Z,100.00
2023-03-15T20:13:53.746Z,100.00
2023-03-15T20:16:22.134Z,100.00
2023-03-15T20:18:55.985Z,100.00
2023-03-15T20:21:24.313Z,100.00
2023-03-15T20:23:52.528Z,100.00
2023-03-15T20:26:22.770Z,100.00
2023-03-15T20:28:52.404Z,100.00
2023-03-15T20:31:23.547Z,100.00
2023-03-15T20:33:53.308Z,100.00
2023-03-15T20:36:22.208Z,100.00
2023-03-15T20:38:50.724Z,100.00
2023-03-15T20:41:18.977Z,100.00
2023-03-15T20:43:48.642Z,100.00
2023-03-15T20:46:19.423Z,100.00
2023-03-15T20:48:47.653Z,100.00
2023-03-15T20:51:16.258Z,100.00
2023-03-15T20:53:44.580Z,100.00
2023-03-15T20:56:16.591Z,100.00
2023-03-15T20:58:45.265Z,100.00
2023-03-15T21:01:15.200Z,100.00
2023-03-15T21:03:44.412Z,99.98
2023-03-15T21:06:12.966Z,99.72
2023-03-15T21:08:42.551Z,98.97
2023-03-15T21:11:10.830Z,98.19
2023-03-15T21:13:39.104Z,97.07
2023-03-15T21:16:07.767Z,96.34
2023-03-15T21:18:37.754Z,96.00
2023-03-15T21:21:07.549Z,95.80
2023-03-15T21:23:37.528Z,96.07
2023-03-15T21:26:06.796Z,96.84
2023-03-15T21:28:41.731Z,97.99
2023-03-15T21:31:10.771Z,99.22
2023-03-15T21:33:39.379Z,99.89
2023-03-15T21:36:07.953Z,100.00
2023-03-15T21:38:37.465Z,100.00
2023-03-15T21:41:09.222Z,100.00
2023-03-15T21:43:38.215Z,100.00
2023-03-15T21:46:10.301Z,100.00
2023-03-15T21:48:38.642Z,100.00
2023-03-15T21:51:07.462Z,100.00
2023-03-15T21:53:35.780Z,100.00
2023-03-15T21:56:04.141Z,100.00
2023-03-15T21:58:32.569Z,100.00
2023-03-15T22:01:04.805Z,100.00
2023-03-15T22:03:33.555Z,100.00
2023-03-15T22:06:01.940Z,100.00
2023-03-15T22:08:33.946Z,100.00
2023-03-15T22:11:02.297Z,100.00
2023-03-15T22:13:30.758Z,100.00
2023-03-15T22:15:59.228Z,100.00
2023-03-15T22:18:28.911Z,100.00
2023-03-15T22:20:57.130Z,100.00
2023-03-15T22:23:25.429Z,100.00
2023-03-15T22:25:55.731Z,100.00
2023-03-15T22:28:27.841Z,100.00
2023-03-15T22:30:56.361Z,100.00
2023-03-15T22:33:24.649Z,100.00
2023-03-15T22:35:54.080Z,100.00
2023-03-15T22:38:24.053Z,100.00
2023-03-15T22:40:59.382Z,100.00
2023-03-15T22:43:27.566Z,100.00
2023-03-15T22:45:59.429Z,100.00
2023-03-15T22:48:27.671Z,100.00
2023-03-15T22:51:00.805Z,100.00
2023-03-15T22:53:30.713Z,100.00
2023-03-15T22:55:58.992Z,100.00
2023-03-15T22:58:27.343Z,100.00
2023-03-15T23:00:55.660Z,100.00
2023-03-15T23:03:24.055Z,100.00
2023-03-15T23:05:52.915Z,100.00
2023-03-15T23:08:21.435Z,100.00
2023-03-15T23:10:49.554Z,100.00
2023-03-15T23:13:17.776Z,100.00
2023-03-15T23:15:50.505Z,100.00
2023-03-15T23:18:18.869Z,100.00
2023-03-15T23:20:47.198Z,100.00
2023-03-15T23:23:17.272Z,100.00
2023-03-15T23:25:47.089Z,100.00
2023-03-15T23:28:17.470Z,100.00
2023-03-15T23:30:47.274Z,100.00
2023-03-15T23:33:15.637Z,100.00
2023-03-15T23:35:43.853Z,100.00
2023-03-15T23:38:13.891Z,100.00
2023-03-15T23:40:42.237Z,100.00
2023-03-15T23:43:10.489Z,100.00
2023-03-15T23:45:38.781Z,100.00
2023-03-15T23:48:07.153Z,100.00
2023-03-15T23:50:38.376Z,100.00
2023-03-15T23:53:06.895Z,100.00
2023-03-15T23:55:35.988Z,100.00
2023-03-15T23:58:06.904Z,100.00
